Iowa City, IA

6:58 AM CDT on September 02, 2015 (GMT -0500)
SE Iowa City | | Change Station
CLOSE
Current Station
Personal Weather Station
Location: Iowa City, IA
Elevation: 656 ft
Nearby Weather Stations

Elev 656 ft 41.63 °N, 91.48 °W | Updated 4 minutes ago

Clear
Clear
67.1 °F
Feels Like 67.1 °F
N
0.0
Wind Variable Wind from South
Gusts 0.0 mph

Today
High -- | Low -- °F
--% Chance of Precip.
Yesterday
High -- | Low -- °F
Precip. -- in
6:32 AM 7:38 PM
Waning Gibbous, 81% visible
Pressure 30.03 in
Visibility 3.0 miles
Clouds Clear
Dew Point 66 °F
Humidity 96%
Rainfall 0.00 in
Snow Depth Not available.
UV 0 out of 12
Pollen 10.40 out of 12
Air Quality Not available.
Flu Activity Not available.
METAR KIOW 021152Z AUTO 00000KT 3SM BR CLR 19/19 A3004 RMK AO2 SLP167 T01940189 10217 20194 52010
Pressure 30.03 in
Visibility 3.0 miles
Clouds Clear
Dew Point 66 °F
Humidity 96%
Rainfall 0.00 in
Snow Depth Not available.
UV 0 out of 12
Pollen 10.40 out of 12
Air Quality Not available.
Flu Activity Not available.
METAR KIOW 021152Z AUTO 00000KT 3SM BR CLR 19/19 A3004 RMK AO2 SLP167 T01940189 10217 20194 52010

10-Day Weather Forecast

×

Almanac

Astronomy

Sep. 02, 2015 Rise Set
Actual Time
Civil Twilight
Nautical Twilight
Astronomical Twilight
Moon
Length of Visible Light
Length of Day
Tomorrow will be .
, % of the Moon is Illuminated

Today's Extremes

State Highs State Lows

Community

WunderPhotos

Upload Photos

1,851,736 photos uploaded!

WunderBlogs® & News

Nearby

Air Quality

  Air Quality AQ Index Pollutant
Not available.

Snow Depth

Station Depth Elevation

Earthquake Activity

City Distance Mag. Time & Date
Minimum magnitude displayed is 2.5.

Coastal Water Temperatures

Place Temperature

Stations

Nearby Weather Stations

Station Location Temp. Windchill Dew Point Humidity Wind Precip. Elev Updated Type